Time;durP1;ratioP1;P1;durP2;ratioP2;P2;SDS_P1;SDS_P2;PMS_P1;PMS_P2;Temp;Humidity;BMP_temperature;BMP_pressure;BME280_temperature;BME280_humidity;BME280_pressure;Samples;Min_cycle;Max_cycle;Signal;HPM_P1;HPM_P2
2024/04/14 00:01:53;;;;;;;3.20;1.33;;;18.60;99.90;;;;;;5453987;26;20003;-73
2024/04/14 00:04:18;;;;;;;5.50;1.55;;;18.50;99.90;;;;;;5453310;26;20031;-74
2024/04/14 00:06:44;;;;;;;1.40;1.20;;;18.40;99.90;;;;;;5453803;26;19999;-73
2024/04/14 00:09:10;;;;;;;2.28;1.10;;;18.50;99.90;;;;;;5453528;26;20006;-74
2024/04/14 00:11:36;;;;;;;2.38;1.05;;;18.50;99.90;;;;;;5453276;26;19995;-74
2024/04/14 00:14:02;;;;;;;1.25;0.85;;;18.40;99.90;;;;;;5453802;26;20365;-73
2024/04/14 00:16:27;;;;;;;1.38;1.00;;;18.40;99.90;;;;;;5453628;26;20382;-76
2024/04/14 00:18:53;;;;;;;3.28;1.40;;;18.40;99.90;;;;;;5453491;26;19999;-73
2024/04/14 00:21:22;;;;;;;8.07;1.10;;;18.30;99.90;;;;;;5453498;26;19999;-74
2024/04/14 00:23:48;;;;;;;4.68;1.38;;;18.30;99.90;;;;;;5432160;26;19999;-72
2024/04/14 00:26:14;;;;;;;2.42;1.25;;;18.10;99.90;;;;;;5453775;26;20451;-74
2024/04/14 00:28:40;;;;;;;5.65;1.70;;;18.20;99.90;;;;;;5453036;26;20009;-72
2024/04/14 00:31:06;;;;;;;2.75;1.50;;;18.10;99.90;;;;;;5453306;26;20010;-73
2024/04/14 00:33:34;;;;;;;4.75;1.73;;;18.00;99.90;;;;;;5452707;26;20320;-73
2024/04/14 00:36:01;;;;;;;4.07;1.48;;;18.00;99.90;;;;;;5453884;26;20003;-76
2024/04/14 00:38:27;;;;;;;2.70;1.30;;;17.90;99.90;;;;;;5452363;26;20034;-73
2024/04/14 00:40:53;;;;;;;1.88;1.30;;;17.80;99.90;;;;;;5453072;26;20079;-73
2024/04/14 00:43:20;;;;;;;2.05;1.50;;;17.80;99.90;;;;;;5452908;26;20003;-72
2024/04/14 00:45:46;;;;;;;4.05;1.60;;;17.80;99.90;;;;;;5453415;26;20343;-72
2024/04/14 00:48:13;;;;;;;4.95;1.50;;;17.80;99.90;;;;;;5452751;26;20552;-73
2024/04/14 00:50:40;;;;;;;2.30;1.30;;;17.70;99.90;;;;;;5450877;26;20405;-73
2024/04/14 00:53:07;;;;;;;4.07;1.60;;;17.70;99.90;;;;;;5453383;26;20035;-74
2024/04/14 00:55:34;;;;;;;2.78;1.23;;;17.70;99.90;;;;;;5452929;26;20038;-73
2024/04/14 00:57:59;;;;;;;3.88;1.67;;;17.80;99.90;;;;;;5453327;26;20026;-74
2024/04/14 01:00:26;;;;;;;3.47;1.27;;;17.80;99.90;;;;;;5452841;26;20014;-72
2024/04/14 01:02:55;;;;;;;3.38;1.58;;;17.80;99.90;;;;;;5449907;26;19999;-74
2024/04/14 01:05:24;;;;;;;5.32;1.45;;;17.70;99.90;;;;;;5450965;26;19999;-72
2024/04/14 01:07:52;;;;;;;6.40;1.70;;;17.70;99.90;;;;;;5452750;26;20046;-72
2024/04/14 01:10:18;;;;;;;6.45;1.98;;;17.70;99.90;;;;;;5452846;26;19998;-74
2024/04/14 01:12:44;;;;;;;2.17;1.70;;;17.60;99.90;;;;;;5452043;26;20014;-72
2024/04/14 01:15:10;;;;;;;3.22;1.85;;;17.60;99.90;;;;;;5452992;26;20063;-72
2024/04/14 01:17:36;;;;;;;3.22;1.60;;;17.60;99.90;;;;;;5451689;26;20022;-72
2024/04/14 01:20:04;;;;;;;3.90;2.15;;;17.50;99.90;;;;;;5452710;26;20325;-72
2024/04/14 01:22:29;;;;;;;7.30;2.22;;;17.40;99.90;;;;;;5451653;26;20003;-72
2024/04/14 01:25:06;;;;;;;4.30;2.42;;;17.50;99.90;;;;;;5453059;26;19995;-73
2024/04/14 01:27:36;;;;;;;5.35;2.28;;;17.40;99.90;;;;;;5442373;26;20003;-72
2024/04/14 01:30:05;;;;;;;7.32;2.65;;;17.30;99.90;;;;;;5452382;26;20006;-72
2024/04/14 01:32:33;;;;;;;4.45;2.20;;;17.40;99.90;;;;;;5452314;26;20443;-72
2024/04/14 01:35:02;;;;;;;5.68;2.53;;;17.30;99.90;;;;;;5451699;26;19999;-74
2024/04/14 01:37:28;;;;;;;6.45;2.40;;;17.30;99.90;;;;;;5450706;26;20686;-72
2024/04/14 01:39:53;;;;;;;4.85;2.00;;;17.30;99.90;;;;;;5452803;26;20028;-72
2024/04/14 01:42:19;;;;;;;4.72;2.10;;;17.30;99.90;;;;;;5452280;26;20600;-73
2024/04/14 01:44:45;;;;;;;9.30;1.88;;;17.40;99.90;;;;;;5451802;26;20010;-72
2024/04/14 01:47:10;;;;;;;5.00;2.15;;;17.20;99.90;;;;;;5450881;26;20073;-73
2024/04/14 01:49:36;;;;;;;6.40;2.10;;;17.20;99.90;;;;;;5448439;26;20580;-72
2024/04/14 01:52:02;;;;;;;4.88;2.33;;;17.10;99.90;;;;;;5449920;26;19998;-72
2024/04/14 01:54:28;;;;;;;5.00;2.40;;;17.20;99.90;;;;;;5451576;26;20458;-73
2024/04/14 01:56:54;;;;;;;5.85;2.53;;;17.10;99.90;;;;;;5452350;26;20067;-72
2024/04/14 01:59:20;;;;;;;4.95;2.33;;;17.10;99.90;;;;;;5452727;26;20075;-72
2024/04/14 02:01:45;;;;;;;8.40;2.42;;;17.10;99.90;;;;;;5450918;26;20561;-73
2024/04/14 02:04:11;;;;;;;5.78;2.47;;;17.00;99.90;;;;;;5450058;26;20792;-73
2024/04/14 02:06:37;;;;;;;8.40;2.53;;;17.00;99.90;;;;;;5448979;26;20340;-73
2024/04/14 02:09:02;;;;;;;6.13;2.60;;;17.10;99.90;;;;;;5448421;26;19995;-73
2024/04/14 02:11:29;;;;;;;10.27;3.25;;;17.10;99.90;;;;;;5448919;26;20072;-72
2024/04/14 02:13:55;;;;;;;8.25;3.20;;;17.00;99.90;;;;;;5449060;26;20077;-73
2024/04/14 02:16:21;;;;;;;10.50;3.28;;;16.90;99.90;;;;;;5449440;26;20014;-72
2024/04/14 02:18:47;;;;;;;7.10;3.15;;;16.90;99.90;;;;;;5450253;26;20003;-73
2024/04/14 02:21:12;;;;;;;5.50;3.30;;;16.90;99.90;;;;;;5452038;26;20035;-72
2024/04/14 02:23:38;;;;;;;10.75;3.30;;;16.90;99.90;;;;;;5449993;26;20450;-72
2024/04/14 02:26:04;;;;;;;8.73;3.10;;;16.90;99.90;;;;;;5450702;26;20472;-72
2024/04/14 02:28:30;;;;;;;11.27;3.92;;;17.00;99.90;;;;;;5451310;26;20039;-73
2024/04/14 02:30:56;;;;;;;11.40;3.70;;;16.90;99.90;;;;;;5451248;26;20416;-73
2024/04/14 02:33:22;;;;;;;7.75;3.70;;;16.90;99.90;;;;;;5451840;26;20003;-72
2024/04/14 02:35:55;;;;;;;11.02;3.92;;;16.90;99.90;;;;;;5450230;26;19999;-72
2024/04/14 02:38:21;;;;;;;11.55;3.95;;;16.80;99.90;;;;;;5451464;26;19995;-74
2024/04/14 02:41:00;;;;;;;12.20;3.88;;;16.60;99.90;;;;;;5451903;26;20448;-76
2024/04/14 02:43:26;;;;;;;7.63;3.30;;;16.60;99.90;;;;;;5451257;26;20447;-72
2024/04/14 02:45:53;;;;;;;17.38;4.53;;;16.60;99.90;;;;;;5451940;26;19999;-72
2024/04/14 02:48:19;;;;;;;15.07;3.65;;;16.60;99.90;;;;;;5451373;26;19999;-72
2024/04/14 02:50:45;;;;;;;8.23;3.22;;;16.70;99.90;;;;;;5450935;26;20348;-73
2024/04/14 02:53:10;;;;;;;13.18;4.18;;;16.70;99.90;;;;;;5449756;26;20006;-72
2024/04/14 02:55:37;;;;;;;14.13;4.07;;;16.70;99.90;;;;;;5450324;26;19995;-72
2024/04/14 02:58:03;;;;;;;13.98;4.20;;;16.60;99.90;;;;;;5450349;26;19999;-72
2024/04/14 03:00:29;;;;;;;14.32;4.35;;;16.60;99.90;;;;;;5451602;26;20410;-74
2024/04/14 03:02:55;;;;;;;12.07;4.55;;;16.60;99.90;;;;;;5450483;26;19995;-73
2024/04/14 03:05:22;;;;;;;14.15;4.72;;;16.60;99.90;;;;;;5451466;26;19995;-72
2024/04/14 03:07:48;;;;;;;14.60;4.40;;;16.60;99.90;;;;;;5451058;26;19999;-73
2024/04/14 03:10:14;;;;;;;9.00;4.07;;;16.70;99.90;;;;;;5451010;26;20010;-72
2024/04/14 03:12:40;;;;;;;11.90;4.60;;;16.60;99.90;;;;;;5449397;26;20002;-73
2024/04/14 03:15:06;;;;;;;12.57;5.20;;;16.60;99.90;;;;;;5454814;26;20013;-72
2024/04/14 03:17:32;;;;;;;10.90;4.82;;;16.50;99.90;;;;;;5454166;26;19995;-73
2024/04/14 03:19:58;;;;;;;12.30;4.90;;;16.50;99.90;;;;;;5454596;26;20027;-73
2024/04/14 03:22:24;;;;;;;15.73;4.93;;;16.60;99.90;;;;;;5454074;26;20346;-72
2024/04/14 03:24:50;;;;;;;12.15;4.63;;;16.50;99.90;;;;;;5454637;26;19995;-72
2024/04/14 03:27:16;;;;;;;15.40;5.03;;;16.50;99.90;;;;;;5446478;26;20441;-73
2024/04/14 03:29:44;;;;;;;14.48;5.70;;;16.50;99.90;;;;;;5438588;26;20459;-72
2024/04/14 03:32:10;;;;;;;13.52;5.20;;;16.40;99.90;;;;;;5454465;26;20014;-79
2024/04/14 03:34:36;;;;;;;17.38;5.40;;;16.30;99.90;;;;;;5454283;26;20324;-72
2024/04/14 03:37:02;;;;;;;14.32;5.90;;;16.40;99.90;;;;;;5454587;26;20380;-73
2024/04/14 03:39:27;;;;;;;11.52;5.45;;;16.40;99.90;;;;;;5454068;26;20028;-73
2024/04/14 03:41:55;;;;;;;15.23;5.07;;;16.50;99.90;;;;;;5453609;26;19999;-73
2024/04/14 03:44:21;;;;;;;13.95;5.85;;;16.40;99.90;;;;;;5454605;26;20014;-73
2024/04/14 03:46:47;;;;;;;17.02;5.20;;;16.40;99.90;;;;;;5454477;26;20349;-75
2024/04/14 03:49:12;;;;;;;13.05;5.35;;;16.40;99.90;;;;;;5454731;26;20006;-76
2024/04/14 03:51:38;;;;;;;15.25;6.00;;;16.40;99.90;;;;;;5453798;26;19999;-74
2024/04/14 03:54:04;;;;;;;17.42;6.03;;;16.40;99.90;;;;;;5453601;26;20346;-73
2024/04/14 03:56:29;;;;;;;16.98;4.97;;;16.40;99.90;;;;;;5451734;26;20014;-75
2024/04/14 03:58:55;;;;;;;19.08;5.28;;;16.40;99.90;;;;;;5452271;26;20011;-72
2024/04/14 04:01:21;;;;;;;13.80;5.63;;;16.30;99.90;;;;;;5453692;26;19999;-72
2024/04/14 04:03:46;;;;;;;18.75;5.75;;;16.30;99.90;;;;;;5452488;26;19995;-72
2024/04/14 04:06:12;;;;;;;12.60;5.38;;;16.30;99.90;;;;;;5453345;26;19999;-72
2024/04/14 04:08:38;;;;;;;12.77;5.80;;;16.30;99.90;;;;;;5453481;26;20339;-72
2024/04/14 04:11:05;;;;;;;13.57;5.63;;;16.30;99.90;;;;;;5453515;26;20003;-74
2024/04/14 04:13:32;;;;;;;15.82;5.05;;;16.30;99.90;;;;;;5452371;26;20447;-73
2024/04/14 04:16:05;;;;;;;12.55;5.85;;;16.30;99.90;;;;;;5451895;26;20018;-74
2024/04/14 04:18:32;;;;;;;14.70;5.30;;;16.20;99.90;;;;;;5454145;26;20002;-74
2024/04/14 04:21:01;;;;;;;15.80;6.32;;;16.30;99.90;;;;;;5453471;26;20003;-73
2024/04/14 04:23:28;;;;;;;15.48;5.95;;;16.30;99.90;;;;;;5453434;26;20082;-72
2024/04/14 04:25:55;;;;;;;13.23;5.72;;;16.20;99.90;;;;;;5453135;26;20003;-72
2024/04/14 04:28:25;;;;;;;16.60;5.55;;;16.20;99.90;;;;;;5453280;26;20010;-72
2024/04/14 04:30:51;;;;;;;21.38;6.25;;;16.20;99.90;;;;;;5453454;26;20009;-73
2024/04/14 04:33:17;;;;;;;15.52;5.88;;;16.20;99.90;;;;;;5453945;26;19999;-72
2024/04/14 04:35:53;;;;;;;17.55;6.50;;;16.20;99.90;;;;;;5453209;26;20002;-72
2024/04/14 04:38:20;;;;;;;18.45;6.57;;;16.20;99.90;;;;;;5453315;26;20455;-73
2024/04/14 04:40:46;;;;;;;15.95;5.88;;;16.20;99.90;;;;;;5451607;26;20013;-72
2024/04/14 04:43:11;;;;;;;16.02;5.70;;;16.10;99.90;;;;;;5453179;26;19998;-72
2024/04/14 04:45:37;;;;;;;16.42;6.00;;;16.10;99.90;;;;;;5453396;26;20006;-72
2024/04/14 04:48:03;;;;;;;17.20;6.22;;;16.10;99.90;;;;;;5453752;26;20009;-72
2024/04/14 04:50:29;;;;;;;19.83;6.57;;;16.10;99.90;;;;;;5451217;26;20410;-72
2024/04/14 04:52:56;;;;;;;17.10;6.60;;;16.10;99.90;;;;;;5452651;26;19999;-72
2024/04/14 04:55:21;;;;;;;11.73;5.60;;;16.10;99.90;;;;;;5451372;26;20003;-72
2024/04/14 04:57:47;;;;;;;15.63;6.78;;;16.10;99.90;;;;;;5453291;26;20006;-71
2024/04/14 05:00:13;;;;;;;16.92;6.20;;;16.10;99.90;;;;;;5453333;26;20006;-72
2024/04/14 05:02:39;;;;;;;16.63;5.78;;;16.10;99.90;;;;;;5452835;26;20018;-72
2024/04/14 05:05:05;;;;;;;15.93;6.72;;;16.10;99.90;;;;;;5453122;26;19999;-72
2024/04/14 05:07:33;;;;;;;16.85;6.75;;;16.10;99.90;;;;;;5452453;26;20006;-75
2024/04/14 05:09:59;;;;;;;21.13;7.50;;;16.10;99.90;;;;;;5445027;26;20406;-72
2024/04/14 05:12:25;;;;;;;21.60;7.20;;;16.10;99.90;;;;;;5443577;26;20002;-72
2024/04/14 05:14:51;;;;;;;17.52;6.32;;;16.10;99.90;;;;;;5450363;26;20072;-72
2024/04/14 05:17:17;;;;;;;17.75;6.82;;;16.10;99.90;;;;;;5452866;26;20014;-72
2024/04/14 05:19:42;;;;;;;21.75;6.57;;;16.10;99.90;;;;;;5451690;26;20466;-73
2024/04/14 05:22:08;;;;;;;19.33;6.65;;;16.00;99.90;;;;;;5449912;26;20003;-72
2024/04/14 05:24:34;;;;;;;17.27;7.10;;;16.00;99.90;;;;;;5452513;26;20105;-72
2024/04/14 05:26:59;;;;;;;21.30;7.47;;;16.10;99.90;;;;;;5451956;26;20010;-72
2024/04/14 05:29:25;;;;;;;15.52;6.43;;;16.00;99.90;;;;;;5451389;26;20331;-72
2024/04/14 05:31:52;;;;;;;16.67;6.47;;;16.00;99.90;;;;;;5451491;26;19999;-72
2024/04/14 05:34:18;;;;;;;15.25;6.47;;;16.00;99.90;;;;;;5453427;26;20003;-72
2024/04/14 05:36:47;;;;;;;15.30;6.68;;;16.00;99.90;;;;;;5448635;26;20083;-71
2024/04/14 05:39:12;;;;;;;19.67;7.72;;;16.10;99.90;;;;;;5452505;26;20477;-72
2024/04/14 05:41:38;;;;;;;19.83;6.57;;;16.10;99.90;;;;;;5447468;26;20003;-72
2024/04/14 05:44:04;;;;;;;19.30;6.82;;;16.00;99.90;;;;;;5436139;26;20053;-71
2024/04/14 05:46:30;;;;;;;14.63;6.53;;;16.00;99.90;;;;;;5446397;26;20487;-72
2024/04/14 05:48:56;;;;;;;20.27;7.43;;;16.00;99.90;;;;;;5435809;26;20014;-72
2024/04/14 05:51:21;;;;;;;15.10;6.25;;;16.00;99.90;;;;;;5445241;26;20016;-74
2024/04/14 05:53:48;;;;;;;22.08;7.07;;;16.00;99.90;;;;;;5433752;26;20072;-73
2024/04/14 05:56:14;;;;;;;19.02;7.18;;;16.00;99.90;;;;;;5446343;26;20040;-72
2024/04/14 05:58:40;;;;;;;20.02;7.40;;;16.00;99.90;;;;;;5427953;26;20062;-72
2024/04/14 06:01:07;;;;;;;17.80;6.57;;;16.00;99.90;;;;;;5436444;26;20466;-72
2024/04/14 06:03:33;;;;;;;21.05;6.40;;;16.00;99.90;;;;;;5449991;26;19999;-72
2024/04/14 06:06:00;;;;;;;17.40;6.90;;;16.00;99.90;;;;;;5451406;26;20077;-75
2024/04/14 06:08:26;;;;;;;27.13;6.68;;;16.00;99.90;;;;;;5451734;26;20324;-72
2024/04/14 06:10:52;;;;;;;16.77;6.88;;;16.00;99.90;;;;;;5452411;26;20005;-71
2024/04/14 06:13:18;;;;;;;16.95;7.50;;;16.00;99.90;;;;;;5450633;26;20002;-73
2024/04/14 06:15:45;;;;;;;18.63;7.25;;;16.10;99.90;;;;;;5452529;26;20007;-74
2024/04/14 06:18:11;;;;;;;20.60;7.60;;;16.10;99.90;;;;;;5451264;26;19998;-72
2024/04/14 06:20:39;;;;;;;17.27;7.18;;;16.10;99.90;;;;;;5451755;26;20454;-72
2024/04/14 06:23:05;;;;;;;17.42;7.00;;;16.00;99.90;;;;;;5450234;26;20006;-73
2024/04/14 06:25:31;;;;;;;20.08;7.40;;;16.20;99.90;;;;;;5452601;26;20009;-72
2024/04/14 06:27:57;;;;;;;18.23;6.78;;;16.10;99.90;;;;;;5450431;26;19998;-72
2024/04/14 06:30:23;;;;;;;16.70;7.00;;;16.10;99.90;;;;;;5448700;26;20087;-71
2024/04/14 06:32:51;;;;;;;17.63;6.75;;;16.20;99.90;;;;;;5450725;26;20097;-72
2024/04/14 06:35:17;;;;;;;22.83;6.90;;;16.00;99.90;;;;;;5451433;26;20042;-73
2024/04/14 06:37:43;;;;;;;15.02;6.15;;;16.00;99.90;;;;;;5450053;26;20021;-72
2024/04/14 06:40:10;;;;;;;15.13;6.55;;;16.10;99.90;;;;;;5451666;26;19994;-72
2024/04/14 06:42:39;;;;;;;16.30;6.45;;;16.20;99.90;;;;;;5448754;26;19995;-72
2024/04/14 06:45:06;;;;;;;16.65;5.47;;;16.20;99.90;;;;;;5446247;26;20003;-72
2024/04/14 06:47:32;;;;;;;15.57;5.65;;;16.20;99.90;;;;;;5445612;26;20018;-72
2024/04/14 06:49:58;;;;;;;12.40;5.50;;;16.20;99.90;;;;;;5451328;26;20409;-72
2024/04/14 06:52:23;;;;;;;16.33;5.53;;;16.20;99.90;;;;;;5434117;26;20002;-76
2024/04/14 06:54:49;;;;;;;11.77;4.60;;;16.30;99.90;;;;;;5450615;26;19998;-76
2024/04/14 06:57:15;;;;;;;17.98;5.70;;;16.20;99.90;;;;;;5448951;26;20438;-73
2024/04/14 06:59:41;;;;;;;14.82;5.05;;;16.20;99.90;;;;;;5451273;26;19999;-76
2024/04/14 07:02:07;;;;;;;15.70;5.05;;;16.20;99.90;;;;;;5432657;26;20015;-73
2024/04/14 07:04:33;;;;;;;11.95;4.80;;;16.20;99.90;;;;;;5448782;26;20464;-73
2024/04/14 07:07:00;;;;;;;14.55;4.97;;;16.20;99.90;;;;;;5451283;26;20418;-74
2024/04/14 07:09:25;;;;;;;11.98;5.03;;;16.20;99.90;;;;;;5450840;26;19998;-74
2024/04/14 07:11:52;;;;;;;14.65;4.50;;;16.10;99.90;;;;;;5450326;26;20009;-72
2024/04/14 07:14:19;;;;;;;15.93;5.28;;;16.10;99.90;;;;;;5449827;26;20002;-72
2024/04/14 07:16:45;;;;;;;15.60;5.38;;;16.20;99.90;;;;;;5449356;26;19999;-73
2024/04/14 07:19:12;;;;;;;14.13;5.10;;;16.20;99.90;;;;;;5450784;26;20023;-72
2024/04/14 07:21:39;;;;;;;13.45;4.70;;;16.30;99.90;;;;;;5450268;26;20459;-75
2024/04/14 07:24:05;;;;;;;13.73;5.63;;;16.30;99.90;;;;;;5449525;26;20339;-77
2024/04/14 07:26:32;;;;;;;11.50;4.70;;;16.30;99.90;;;;;;5450361;26;19998;-73
2024/04/14 07:28:58;;;;;;;14.95;4.55;;;16.30;99.90;;;;;;5449052;26;20007;-74
2024/04/14 07:31:24;;;;;;;13.50;4.53;;;16.40;99.90;;;;;;5431013;26;20023;-79
2024/04/14 07:34:01;;;;;;;9.80;4.15;;;16.40;99.90;;;;;;5427928;26;20028;-76
2024/04/14 07:36:27;;;;;;;15.50;5.15;;;16.30;99.90;;;;;;5445563;26;20003;-77
2024/04/14 07:38:53;;;;;;;12.10;3.72;;;16.40;99.90;;;;;;5450756;26;20014;-74
2024/04/14 07:41:22;;;;;;;8.63;3.28;;;16.30;99.90;;;;;;5434000;26;20030;-74
2024/04/14 07:43:48;;;;;;;16.88;3.30;;;16.30;99.90;;;;;;5432680;26;19999;-78
2024/04/14 07:46:14;;;;;;;10.70;3.97;;;16.50;99.90;;;;;;5450153;26;20623;-78
2024/04/14 07:48:40;;;;;;;11.38;3.33;;;16.50;99.90;;;;;;5450603;26;20076;-74
2024/04/14 07:51:07;;;;;;;10.02;2.88;;;16.60;99.90;;;;;;5450165;26;19999;-79
2024/04/14 07:53:32;;;;;;;12.95;3.63;;;16.60;99.90;;;;;;5446931;26;20010;-75
2024/04/14 07:55:58;;;;;;;10.57;3.55;;;16.60;99.90;;;;;;5445998;26;19999;-73
2024/04/14 07:58:24;;;;;;;12.30;3.75;;;16.60;99.90;;;;;;5449183;26;20428;-72
2024/04/14 08:00:50;;;;;;;8.10;3.10;;;16.50;99.90;;;;;;5453408;26;20358;-73
2024/04/14 08:03:16;;;;;;;11.18;3.35;;;16.50;99.90;;;;;;5453957;26;20003;-76
2024/04/14 08:05:43;;;;;;;8.70;3.67;;;16.60;99.90;;;;;;5452095;26;20010;-73
2024/04/14 08:08:09;;;;;;;11.93;3.95;;;16.60;99.90;;;;;;5450093;26;19999;-78
2024/04/14 08:10:35;;;;;;;14.35;3.63;;;16.70;99.90;;;;;;5452771;26;19998;-73
2024/04/14 08:13:01;;;;;;;10.95;3.85;;;16.60;99.90;;;;;;5451970;26;20451;-74
2024/04/14 08:15:27;;;;;;;12.20;3.53;;;16.70;99.90;;;;;;5452608;26;20006;-74
2024/04/14 08:17:56;;;;;;;14.25;4.38;;;16.80;99.90;;;;;;5453175;26;19999;-74
2024/04/14 08:20:24;;;;;;;11.80;4.30;;;16.80;99.90;;;;;;5453178;26;20006;-75
2024/04/14 08:22:50;;;;;;;13.23;3.95;;;16.90;99.90;;;;;;5451725;26;20039;-74
2024/04/14 08:25:16;;;;;;;13.65;3.40;;;17.00;99.90;;;;;;5453623;26;20409;-72
2024/04/14 08:27:42;;;;;;;9.05;2.80;;;16.90;99.90;;;;;;5453180;26;20011;-76
2024/04/14 08:30:08;;;;;;;11.13;3.53;;;16.90;99.90;;;;;;5452032;26;20014;-72
2024/04/14 08:32:34;;;;;;;8.10;3.45;;;16.90;99.90;;;;;;5395333;26;20015;-73
2024/04/14 08:35:00;;;;;;;10.07;3.00;;;17.00;99.90;;;;;;5431381;26;20335;-73
2024/04/14 08:37:26;;;;;;;11.73;3.30;;;17.20;99.90;;;;;;5428985;26;20009;-73
2024/04/14 08:39:52;;;;;;;8.25;3.15;;;17.30;99.90;;;;;;5425440;26;20566;-72
2024/04/14 08:42:18;;;;;;;9.07;3.20;;;17.30;99.90;;;;;;5424210;26;20003;-73
2024/04/14 08:44:46;;;;;;;10.27;3.47;;;17.40;99.90;;;;;;5424351;26;20003;-73
2024/04/14 08:47:16;;;;;;;7.72;2.15;;;17.40;99.90;;;;;;5431329;26;20057;-75
2024/04/14 08:49:43;;;;;;;8.15;2.00;;;17.40;99.90;;;;;;5433395;26;19995;-72
2024/04/14 08:52:10;;;;;;;9.63;2.60;;;17.50;99.90;;;;;;5424571;26;19999;-74
2024/04/14 08:54:38;;;;;;;6.85;2.33;;;17.60;99.90;;;;;;5430304;26;20009;-73
2024/04/14 08:57:05;;;;;;;11.07;3.05;;;17.60;99.90;;;;;;5420010;26;20007;-71
2024/04/14 08:59:31;;;;;;;6.10;2.35;;;17.80;99.90;;;;;;5429024;26;19999;-73
2024/04/14 09:02:03;;;;;;;7.90;2.17;;;17.80;99.90;;;;;;5421861;26;20003;-71
2024/04/14 09:04:29;;;;;;;9.57;2.55;;;17.80;99.90;;;;;;5397719;26;20015;-71
2024/04/14 09:06:54;;;;;;;10.05;2.05;;;17.90;99.90;;;;;;5432954;26;20010;-75
2024/04/14 09:09:20;;;;;;;10.10;2.33;;;17.90;99.90;;;;;;5428783;26;20039;-71
2024/04/14 09:11:52;;;;;;;7.78;2.50;;;18.00;99.90;;;;;;5423182;26;20080;-71
2024/04/14 09:14:19;;;;;;;7.45;2.33;;;18.10;99.90;;;;;;5422359;26;20011;-72
2024/04/14 09:16:45;;;;;;;12.00;2.47;;;18.20;99.90;;;;;;5422186;26;19999;-71
2024/04/14 09:19:10;;;;;;;10.70;2.05;;;18.20;99.90;;;;;;5420377;26;20448;-76
2024/04/14 09:21:36;;;;;;;10.05;2.40;;;18.10;99.90;;;;;;5418022;26;19999;-76
2024/04/14 09:24:02;;;;;;;14.00;3.15;;;18.10;99.90;;;;;;5424187;26;20439;-72
2024/04/14 09:26:28;;;;;;;7.82;2.25;;;18.10;99.90;;;;;;5431827;26;20018;-73
2024/04/14 09:29:07;;;;;;;8.32;1.92;;;18.30;99.90;;;;;;5437187;26;20003;-72
2024/04/14 09:31:34;;;;;;;8.60;1.80;;;18.40;99.90;;;;;;5425839;26;20444;-73
2024/04/14 09:34:03;;;;;;;8.73;1.95;;;18.60;99.90;;;;;;5426937;26;21567;-72
2024/04/14 09:36:29;;;;;;;13.02;2.30;;;18.70;99.90;;;;;;5427341;26;20010;-72
2024/04/14 09:38:55;;;;;;;12.07;2.67;;;18.80;99.90;;;;;;5423831;26;20128;-72
2024/04/14 09:41:21;;;;;;;10.23;1.92;;;18.90;99.90;;;;;;5423588;26;20011;-72
2024/04/14 09:43:50;;;;;;;8.15;2.00;;;19.00;99.90;;;;;;5421473;26;20359;-72
2024/04/14 09:46:17;;;;;;;10.32;2.10;;;19.00;99.90;;;;;;5417955;26;20007;-73
2024/04/14 09:48:44;;;;;;;7.32;1.63;;;19.10;99.90;;;;;;5431613;26;20010;-72
2024/04/14 09:51:10;;;;;;;3.97;1.50;;;19.20;99.90;;;;;;5420661;26;20017;-72
2024/04/14 09:53:36;;;;;;;8.50;1.83;;;19.30;99.90;;;;;;5422760;26;20040;-77
2024/04/14 09:56:03;;;;;;;8.52;2.08;;;19.20;99.90;;;;;;5428891;26;20007;-73
2024/04/14 09:58:28;;;;;;;7.72;2.00;;;19.20;99.90;;;;;;5425626;26;20018;-73
2024/04/14 10:01:00;;;;;;;8.38;2.17;;;19.20;99.90;;;;;;5423843;26;20895;-74
2024/04/14 10:03:29;;;;;;;8.55;2.00;;;19.30;99.90;;;;;;5430958;26;19999;-73
2024/04/14 10:05:57;;;;;;;8.88;2.05;;;19.40;99.90;;;;;;5435389;26;20459;-72
2024/04/14 10:08:22;;;;;;;5.75;1.92;;;19.60;99.90;;;;;;5433208;26;20002;-74
2024/04/14 10:10:57;;;;;;;6.18;2.10;;;19.60;99.90;;;;;;5434955;26;20031;-73
2024/04/14 10:13:23;;;;;;;11.32;2.08;;;19.70;99.90;;;;;;5424505;26;20000;-73
2024/04/14 10:15:57;;;;;;;9.85;1.85;;;19.60;99.90;;;;;;5435256;26;20013;-73
2024/04/14 10:18:25;;;;;;;8.40;2.30;;;19.50;99.90;;;;;;5436288;26;20047;-72
2024/04/14 10:20:51;;;;;;;5.95;2.20;;;19.60;99.90;;;;;;5427773;26;20436;-72
2024/04/14 10:23:18;;;;;;;8.05;1.90;;;19.40;99.90;;;;;;5430267;26;20035;-72
2024/04/14 10:25:48;;;;;;;7.57;1.75;;;19.50;99.90;;;;;;5429797;26;20013;-73
2024/04/14 10:28:22;;;;;;;9.55;1.65;;;19.70;99.90;;;;;;5428380;26;20027;-72
2024/04/14 10:31:02;;;;;;;6.05;1.67;;;19.80;99.90;;;;;;5426657;26;20084;-74
2024/04/14 10:33:28;;;;;;;9.32;1.85;;;19.70;99.90;;;;;;5430385;26;20009;-77
2024/04/14 10:36:05;;;;;;;5.40;1.52;;;19.70;99.90;;;;;;5438531;26;20434;-75
2024/04/14 10:38:34;;;;;;;5.82;1.88;;;19.40;99.90;;;;;;5424747;26;20007;-74
2024/04/14 10:41:00;;;;;;;7.00;2.00;;;19.40;99.90;;;;;;5429573;26;20520;-81
2024/04/14 10:43:26;;;;;;;7.78;2.20;;;19.40;99.90;;;;;;5421705;26;20004;-82
2024/04/14 10:45:52;;;;;;;5.90;2.00;;;19.60;99.90;;;;;;5419652;26;20422;-74
2024/04/14 10:48:18;;;;;;;7.15;2.17;;;19.90;99.90;;;;;;5419386;26;19999;-77
2024/04/14 10:50:44;;;;;;;6.25;1.60;;;20.00;99.90;;;;;;5421845;26;20022;-77
2024/04/14 10:53:10;;;;;;;11.38;1.90;;;20.10;99.90;;;;;;5419338;26;20316;-80
2024/04/14 10:55:36;;;;;;;9.68;1.80;;;19.90;99.90;;;;;;5426724;26;20000;-82
2024/04/14 10:58:02;;;;;;;8.32;1.75;;;19.80;99.90;;;;;;5431042;26;20007;-78
2024/04/14 11:00:28;;;;;;;5.85;1.17;;;20.00;99.90;;;;;;5436222;26;20046;-83
2024/04/14 11:02:54;;;;;;;9.80;2.08;;;20.10;99.90;;;;;;5421924;26;20012;-76
2024/04/14 11:05:23;;;;;;;4.88;1.80;;;20.10;99.90;;;;;;5425069;26;19999;-80
2024/04/14 11:07:50;;;;;;;8.00;1.55;;;20.00;99.90;;;;;;5428340;26;21996;-77
2024/04/14 11:10:16;;;;;;;6.90;1.55;;;20.00;99.90;;;;;;5424426;26;20011;-77
2024/04/14 11:12:43;;;;;;;3.45;1.10;;;20.20;99.90;;;;;;5429470;26;20003;-76
2024/04/14 11:15:12;;;;;;;5.20;1.98;;;20.10;99.90;;;;;;5423448;26;20515;-77
2024/04/14 11:17:39;;;;;;;8.10;1.60;;;20.00;99.90;;;;;;5428583;26;20014;-77
2024/04/14 11:20:06;;;;;;;5.55;1.42;;;20.20;99.90;;;;;;5424383;26;20369;-79
2024/04/14 11:22:34;;;;;;;5.82;1.92;;;20.50;99.90;;;;;;5418471;26;19995;-79
2024/04/14 11:25:00;;;;;;;7.00;1.52;;;20.50;99.90;;;;;;5416706;26;20013;-81
2024/04/14 11:27:26;;;;;;;4.97;1.45;;;20.40;99.90;;;;;;5420288;26;19996;-73
2024/04/14 11:29:52;;;;;;;7.82;1.58;;;20.30;99.90;;;;;;5417957;26;20443;-84
2024/04/14 11:32:36;;;;;;;4.05;1.73;;;20.00;99.90;;;;;;5418957;26;20070;-83
2024/04/14 11:35:09;;;;;;;5.93;1.55;;;20.20;99.90;;;;;;5420331;26;19996;-78
2024/04/14 11:37:36;;;;;;;4.07;1.38;;;20.40;99.90;;;;;;5425964;26;20017;-77
2024/04/14 11:40:03;;;;;;;6.53;1.70;;;20.70;99.90;;;;;;5426688;26;20002;-79
2024/04/14 11:42:30;;;;;;;7.22;1.67;;;20.80;99.90;;;;;;5423571;26;20031;-83
2024/04/14 11:44:56;;;;;;;5.28;1.20;;;20.90;99.90;;;;;;5430788;26;20004;-77
2024/04/14 11:47:23;;;;;;;3.65;1.20;;;21.10;99.90;;;;;;5429011;26;20051;-81
2024/04/14 11:49:49;;;;;;;4.32;1.35;;;21.10;99.90;;;;;;5422507;26;20014;-85
2024/04/14 11:52:14;;;;;;;5.82;1.30;;;21.00;99.90;;;;;;5430035;26;20080;-75
2024/04/14 11:54:40;;;;;;;3.05;1.15;;;20.80;99.90;;;;;;5419149;26;20008;-76
2024/04/14 11:57:06;;;;;;;4.65;1.55;;;20.70;99.90;;;;;;5419841;26;20010;-74
2024/04/14 11:59:32;;;;;;;3.92;1.33;;;20.70;99.90;;;;;;5424194;26;20023;-78
2024/04/14 12:01:58;;;;;;;4.22;1.25;;;20.70;99.90;;;;;;5423938;26;20012;-81
2024/04/14 12:04:24;;;;;;;4.45;1.20;;;20.70;99.90;;;;;;5426619;26;19995;-81
2024/04/14 12:06:50;;;;;;;4.50;1.42;;;20.80;99.90;;;;;;5422953;26;20007;-83
2024/04/14 12:09:16;;;;;;;6.32;1.60;;;20.70;99.90;;;;;;5422455;26;20000;-80
2024/04/14 12:11:42;;;;;;;3.20;1.27;;;20.70;99.90;;;;;;5416278;26;19998;-86
2024/04/14 12:14:08;;;;;;;4.50;1.60;;;20.70;99.90;;;;;;5427557;26;20092;-84
2024/04/14 12:16:35;;;;;;;4.82;1.70;;;20.80;99.90;;;;;;5427622;26;20005;-74
2024/04/14 12:19:02;;;;;;;7.00;1.73;;;21.00;99.90;;;;;;5419109;26;19996;-81
2024/04/14 12:21:27;;;;;;;6.50;1.50;;;20.80;99.90;;;;;;5420964;26;20091;-77
2024/04/14 12:23:53;;;;;;;6.50;1.52;;;20.90;99.90;;;;;;5420330;26;20000;-76
2024/04/14 12:26:19;;;;;;;4.85;1.17;;;21.30;99.90;;;;;;5422763;26;20014;-79
2024/04/14 12:28:45;;;;;;;5.07;1.20;;;21.30;99.90;;;;;;5427909;26;19991;-76
2024/04/14 12:31:11;;;;;;;7.95;1.50;;;21.30;99.90;;;;;;5425542;26;20030;-76
2024/04/14 12:33:40;;;;;;;8.52;1.27;;;21.30;99.90;;;;;;5426359;26;20006;-83
2024/04/14 12:36:06;;;;;;;4.32;1.17;;;21.30;99.90;;;;;;5427282;26;20026;-88
2024/04/14 12:38:32;;;;;;;3.83;1.20;;;21.30;99.90;;;;;;5421453;26;19995;-84